createdAt,value
2023-02-19T00:01:13.448Z,0.40
2023-02-19T00:04:46.257Z,0.10
2023-02-19T00:08:15.123Z,0.10
2023-02-19T00:11:44.050Z,0.10
2023-02-19T00:15:12.789Z,0.00
2023-02-19T00:18:41.723Z,0.10
2023-02-19T00:22:10.996Z,0.00
2023-02-19T00:25:39.666Z,0.60
2023-02-19T00:29:00.922Z,2.70
2023-02-19T00:32:29.824Z,0.20
2023-02-19T00:35:58.849Z,0.00
2023-02-19T00:39:27.782Z,0.00
2023-02-19T00:42:56.563Z,0.00
2023-02-19T00:46:25.611Z,0.10
2023-02-19T00:49:54.430Z,0.10
2023-02-19T00:53:23.117Z,0.00
2023-02-19T00:56:51.844Z,0.20
2023-02-19T01:00:13.586Z,0.20
2023-02-19T01:03:25.293Z,0.00
2023-02-19T01:06:54.324Z,2.70
2023-02-19T01:10:23.161Z,0.30
2023-02-19T01:13:52.326Z,1.10
2023-02-19T01:17:11.898Z,0.10
2023-02-19T01:20:26.355Z,0.10
2023-02-19T01:23:55.057Z,1.40
2023-02-19T01:27:24.138Z,0.00
2023-02-19T01:30:53.975Z,0.10
2023-02-19T01:34:23.631Z,3.30
2023-02-19T01:37:53.267Z,0.00
2023-02-19T01:41:22.522Z,1.20
2023-02-19T01:44:57.607Z,0.20
2023-02-19T01:48:26.964Z,0.00
2023-02-19T01:51:59.055Z,0.20
2023-02-19T01:55:27.749Z,0.10
2023-02-19T01:58:56.957Z,0.20
2023-02-19T02:02:24.917Z,0.00
2023-02-19T02:05:59.938Z,0.10
2023-02-19T02:09:26.616Z,0.00
2023-02-19T02:12:55.508Z,0.40
2023-02-19T02:16:24.464Z,0.10
2023-02-19T02:20:04.977Z,1.80
2023-02-19T02:23:39.483Z,0.00
2023-02-19T02:27:06.905Z,1.10
2023-02-19T02:30:35.576Z,0.00
2023-02-19T02:34:05.030Z,0.10
2023-02-19T02:37:34.394Z,0.10
2023-02-19T02:41:03.331Z,0.10
2023-02-19T02:44:22.857Z,0.00
2023-02-19T02:48:03.970Z,0.10
2023-02-19T02:51:36.865Z,1.70
2023-02-19T02:55:24.419Z,0.20
2023-02-19T02:58:53.576Z,0.00
2023-02-19T03:02:38.556Z,0.00
2023-02-19T03:06:13.300Z,0.00
2023-02-19T03:09:41.934Z,0.10
2023-02-19T03:13:15.229Z,0.00
2023-02-19T03:16:43.007Z,0.30
2023-02-19T03:20:11.895Z,0.80
2023-02-19T03:23:41.174Z,0.30
2023-02-19T03:27:10.329Z,2.40
2023-02-19T03:30:39.720Z,0.10
2023-02-19T03:34:11.875Z,0.10
2023-02-19T03:37:41.189Z,0.10
2023-02-19T03:41:10.621Z,0.90
2023-02-19T03:44:39.988Z,0.10
2023-02-19T03:48:27.458Z,0.10
2023-02-19T03:51:58.939Z,0.10
2023-02-19T03:55:33.546Z,0.20
2023-02-19T03:59:14.115Z,0.00
2023-02-19T04:02:42.946Z,0.10
2023-02-19T04:06:17.847Z,0.10
2023-02-19T04:09:47.428Z,0.70
2023-02-19T04:13:16.609Z,0.20
2023-02-19T04:16:45.861Z,0.30
2023-02-19T04:20:15.391Z,0.40
2023-02-19T04:23:44.726Z,0.80
2023-02-19T04:27:01.083Z,0.10
2023-02-19T04:30:30.461Z,0.10
2023-02-19T04:33:59.660Z,0.20
2023-02-19T04:37:29.135Z,0.20
2023-02-19T04:40:58.243Z,0.20
2023-02-19T04:44:26.930Z,0.20
2023-02-19T04:47:55.779Z,0.40
2023-02-19T04:51:24.632Z,0.20
2023-02-19T04:54:54.039Z,0.90
2023-02-19T04:58:23.026Z,0.20
2023-02-19T05:01:54.564Z,0.40
2023-02-19T05:05:23.373Z,0.40
2023-02-19T05:08:50.706Z,0.20
2023-02-19T05:12:19.511Z,0.20
2023-02-19T05:15:48.317Z,1.50
2023-02-19T05:19:17.063Z,0.10
2023-02-19T05:22:45.918Z,0.50
2023-02-19T05:26:15.390Z,0.20
2023-02-19T05:29:44.325Z,0.50
2023-02-19T05:33:12.307Z,0.60
2023-02-19T05:36:44.560Z,2.40
2023-02-19T05:40:06.115Z,0.70
2023-02-19T05:43:34.966Z,1.30
2023-02-19T05:47:04.003Z,0.30
2023-02-19T05:50:33.895Z,2.90
2023-02-19T05:54:03.758Z,0.70
2023-02-19T05:57:35.600Z,0.70
2023-02-19T06:01:04.587Z,1.80
2023-02-19T06:04:33.544Z,1.80
2023-02-19T06:08:04.275Z,1.50
2023-02-19T06:11:33.694Z,1.30
2023-02-19T06:15:02.799Z,1.20
2023-02-19T06:18:32.062Z,1.50
2023-02-19T06:22:04.563Z,4.10
2023-02-19T06:25:33.777Z,1.20
2023-02-19T06:29:02.945Z,2.40
2023-02-19T06:32:33.114Z,2.60
2023-02-19T06:35:55.436Z,2.40
2023-02-19T06:39:25.436Z,1.70
2023-02-19T06:42:56.219Z,0.70
2023-02-19T06:46:15.759Z,2.20
2023-02-19T06:49:45.276Z,3.70
2023-02-19T06:53:14.485Z,2.10
2023-02-19T06:56:46.146Z,0.70
2023-02-19T07:00:16.238Z,1.00
2023-02-19T07:03:45.461Z,1.30
2023-02-19T07:07:14.561Z,0.70
2023-02-19T07:10:36.663Z,1.00
2023-02-19T07:14:05.524Z,1.90
2023-02-19T07:17:34.703Z,2.20
2023-02-19T07:21:03.383Z,1.00
2023-02-19T07:24:31.451Z,3.20
2023-02-19T07:27:52.983Z,2.00
2023-02-19T07:31:22.444Z,1.80
2023-02-19T07:34:51.838Z,3.30
2023-02-19T07:38:20.506Z,1.20
2023-02-19T07:41:58.084Z,0.80
2023-02-19T07:45:26.922Z,1.90
2023-02-19T07:48:56.201Z,1.20
2023-02-19T07:52:25.330Z,1.00
2023-02-19T07:55:47.339Z,1.50
2023-02-19T07:59:16.787Z,4.50
2023-02-19T08:02:43.969Z,1.60
2023-02-19T08:09:31.169Z,0.90
2023-02-19T08:12:58.851Z,1.00
2023-02-19T08:16:42.014Z,0.90
2023-02-19T08:20:12.422Z,1.30
2023-02-19T08:23:41.670Z,1.90
2023-02-19T08:27:10.983Z,1.00
2023-02-19T08:30:40.186Z,1.70
2023-02-19T08:34:09.560Z,1.70
2023-02-19T08:37:38.869Z,2.50
2023-02-19T08:41:08.636Z,4.00
2023-02-19T08:44:38.294Z,3.40
2023-02-19T08:48:07.849Z,5.70
2023-02-19T08:51:37.258Z,4.00
2023-02-19T08:55:06.713Z,1.20
2023-02-19T08:58:36.101Z,4.70
2023-02-19T09:05:47.326Z,7.00
2023-02-19T09:09:17.005Z,2.20
2023-02-19T09:12:36.954Z,3.30
2023-02-19T09:16:06.285Z,4.20
2023-02-19T09:19:35.524Z,2.00
2023-02-19T09:23:04.703Z,1.70
2023-02-19T09:26:33.634Z,2.20
2023-02-19T09:29:53.173Z,3.50
2023-02-19T09:33:22.587Z,4.20
2023-02-19T09:36:52.119Z,3.40
2023-02-19T09:40:21.473Z,4.70
2023-02-19T09:43:45.997Z,2.30
2023-02-19T09:47:18.051Z,3.10
2023-02-19T09:50:49.876Z,2.90
2023-02-19T09:54:22.058Z,3.30
2023-02-19T09:57:53.530Z,2.60
2023-02-19T10:01:25.087Z,8.60
2023-02-19T10:04:46.936Z,7.00
2023-02-19T10:08:22.247Z,4.10
2023-02-19T10:11:51.599Z,6.80
2023-02-19T10:15:41.550Z,5.70
2023-02-19T10:19:10.968Z,1.70
2023-02-19T10:22:40.167Z,3.40
2023-02-19T10:26:12.023Z,3.20
2023-02-19T10:29:44.434Z,2.20
2023-02-19T10:33:19.224Z,2.90
2023-02-19T10:36:54.671Z,2.00
2023-02-19T10:40:39.545Z,1.70
2023-02-19T10:44:09.319Z,4.20
2023-02-19T10:47:37.955Z,1.70
2023-02-19T10:51:13.657Z,1.40
2023-02-19T10:54:49.305Z,2.80
2023-02-19T10:58:18.933Z,3.90
2023-02-19T11:01:54.287Z,4.10
2023-02-19T11:05:23.646Z,3.00
2023-02-19T11:08:53.069Z,1.90
2023-02-19T11:12:31.549Z,1.20
2023-02-19T11:16:03.121Z,3.00
2023-02-19T11:19:35.691Z,1.70
2023-02-19T11:23:13.805Z,5.70
2023-02-19T11:26:43.430Z,4.00
2023-02-19T11:30:15.869Z,1.60
2023-02-19T11:33:44.973Z,1.90
2023-02-19T11:37:23.052Z,3.70
2023-02-19T11:40:52.297Z,1.90
2023-02-19T11:44:40.024Z,1.00
2023-02-19T11:48:18.061Z,1.80
2023-02-19T11:51:51.490Z,3.20
2023-02-19T11:55:33.217Z,2.00
2023-02-19T11:59:03.472Z,1.40
2023-02-19T12:02:41.801Z,3.20
2023-02-19T12:06:13.865Z,2.50
2023-02-19T12:09:52.680Z,2.70
2023-02-19T12:13:45.473Z,1.00
2023-02-19T12:17:25.959Z,1.20
2023-02-19T12:21:03.722Z,1.60
2023-02-19T12:24:30.476Z,0.90
2023-02-19T12:28:16.897Z,5.10
2023-02-19T12:31:49.054Z,0.60
2023-02-19T12:35:20.777Z,0.70
2023-02-19T12:39:04.893Z,1.00
2023-02-19T12:42:35.836Z,1.10
2023-02-19T12:46:16.762Z,2.70
2023-02-19T12:49:48.303Z,1.60
2023-02-19T12:53:17.263Z,1.90
2023-02-19T12:56:46.207Z,1.30
2023-02-19T13:00:24.521Z,3.90
2023-02-19T13:03:56.964Z,1.80
2023-02-19T13:07:25.882Z,1.30
2023-02-19T13:11:13.066Z,1.80
2023-02-19T13:14:43.328Z,1.20
2023-02-19T13:18:27.072Z,1.10
2023-02-19T13:21:54.708Z,1.40
2023-02-19T13:25:30.134Z,1.80
2023-02-19T13:29:08.044Z,1.80
2023-02-19T13:32:45.506Z,1.10
2023-02-19T13:36:31.631Z,1.90
2023-02-19T13:40:01.053Z,1.40
2023-02-19T13:43:35.825Z,1.30
2023-02-19T13:47:05.078Z,1.00
2023-02-19T13:50:34.336Z,3.10
2023-02-19T13:53:59.936Z,4.10
2023-02-19T13:57:32.762Z,1.30
2023-02-19T14:00:59.690Z,1.90
2023-02-19T14:04:31.343Z,2.90
2023-02-19T14:08:09.163Z,1.10
2023-02-19T14:11:38.724Z,4.10
2023-02-19T14:15:10.250Z,1.40
2023-02-19T14:18:34.613Z,1.30
2023-02-19T14:22:18.658Z,1.30
2023-02-19T14:25:47.978Z,2.60
2023-02-19T14:29:15.665Z,3.20
2023-02-19T14:32:50.951Z,1.80
2023-02-19T14:36:19.832Z,1.00
2023-02-19T14:39:55.481Z,3.20
2023-02-19T14:43:11.282Z,1.10
2023-02-19T14:46:43.442Z,1.90
2023-02-19T14:50:34.144Z,1.60
2023-02-19T14:54:03.452Z,1.50
2023-02-19T14:57:32.970Z,1.20
2023-02-19T15:01:04.808Z,1.00
2023-02-19T15:04:34.075Z,1.30
2023-02-19T15:08:06.516Z,1.40
2023-02-19T15:11:35.730Z,2.50
2023-02-19T15:15:05.378Z,1.10
2023-02-19T15:18:34.492Z,1.70
2023-02-19T15:22:06.696Z,1.90
2023-02-19T15:25:35.182Z,1.30
2023-02-19T15:29:22.478Z,1.20
2023-02-19T15:32:51.751Z,1.30
2023-02-19T15:36:20.869Z,1.60
2023-02-19T15:39:50.104Z,1.80
2023-02-19T15:43:19.433Z,2.60
2023-02-19T15:46:48.864Z,1.30
2023-02-19T15:50:08.425Z,1.90
2023-02-19T15:53:43.521Z,1.10
2023-02-19T15:57:19.385Z,2.40
2023-02-19T16:04:06.638Z,1.90
2023-02-19T16:07:38.008Z,2.60
2023-02-19T16:11:07.051Z,1.90
2023-02-19T16:14:36.371Z,7.50
2023-02-19T16:18:03.285Z,1.40
2023-02-19T16:21:32.240Z,1.00
2023-02-19T16:25:04.772Z,3.20
2023-02-19T16:28:36.581Z,1.60
2023-02-19T16:32:12.263Z,1.00
2023-02-19T16:35:44.422Z,1.30
2023-02-19T16:39:16.090Z,0.90
2023-02-19T16:42:50.578Z,0.80
2023-02-19T16:46:19.417Z,0.90
2023-02-19T16:49:48.463Z,1.90
2023-02-19T16:53:17.835Z,0.60
2023-02-19T16:56:46.808Z,2.30
2023-02-19T17:00:15.523Z,0.70
2023-02-19T17:03:44.947Z,1.40
2023-02-19T17:07:13.742Z,0.90
2023-02-19T17:10:42.537Z,0.40
2023-02-19T17:14:03.391Z,1.70
2023-02-19T17:17:32.658Z,2.20
2023-02-19T17:21:01.939Z,2.40
2023-02-19T17:24:31.142Z,1.00
2023-02-19T17:27:59.959Z,1.80
2023-02-19T17:31:16.783Z,2.90
2023-02-19T17:34:45.698Z,3.50
2023-02-19T17:38:15.127Z,1.70
2023-02-19T17:41:44.214Z,1.00
2023-02-19T17:45:13.085Z,1.60
2023-02-19T17:48:42.059Z,1.20
2023-02-19T17:52:11.082Z,3.20
2023-02-19T17:55:40.919Z,4.00
2023-02-19T17:59:17.986Z,11.40
2023-02-19T18:02:46.987Z,10.10
2023-02-19T18:06:15.634Z,4.50
2023-02-19T18:09:50.217Z,4.00
2023-02-19T18:13:18.984Z,8.30
2023-02-19T18:16:49.852Z,3.50
2023-02-19T18:20:18.995Z,7.50
2023-02-19T18:23:48.128Z,2.90
2023-02-19T18:27:09.832Z,4.00
2023-02-19T18:30:39.042Z,4.70
2023-02-19T18:34:08.224Z,4.20
2023-02-19T18:37:37.500Z,3.90
2023-02-19T18:41:06.814Z,2.10
2023-02-19T18:44:35.867Z,1.20
2023-02-19T18:48:04.974Z,2.10
2023-02-19T18:51:34.421Z,5.10
2023-02-19T18:55:05.173Z,3.50
2023-02-19T18:58:34.186Z,1.30
2023-02-19T19:02:02.641Z,1.70
2023-02-19T19:05:31.783Z,1.90
2023-02-19T19:09:00.728Z,1.10
2023-02-19T19:12:29.835Z,5.40
2023-02-19T19:15:59.108Z,1.90
2023-02-19T19:19:28.326Z,2.70
2023-02-19T19:22:56.946Z,12.90
2023-02-19T19:26:26.207Z,14.60
2023-02-19T19:29:54.943Z,7.60
2023-02-19T19:33:23.725Z,4.80
2023-02-19T19:36:52.678Z,2.50
2023-02-19T19:40:14.586Z,12.70
2023-02-19T19:43:43.381Z,11.90
2023-02-19T19:47:12.385Z,6.20
2023-02-19T19:50:34.018Z,15.30
2023-02-19T19:54:05.803Z,10.90
2023-02-19T19:57:34.903Z,6.00
2023-02-19T20:01:04.460Z,14.80
2023-02-19T20:04:33.827Z,10.60
2023-02-19T20:08:03.172Z,5.70
2023-02-19T20:11:25.329Z,15.80
2023-02-19T20:14:54.154Z,20.70
2023-02-19T20:18:15.468Z,23.20
2023-02-19T20:21:44.213Z,17.40
2023-02-19T20:25:13.684Z,13.90
2023-02-19T20:28:31.867Z,10.50
2023-02-19T20:32:01.040Z,11.60
2023-02-19T20:36:08.365Z,20.50
2023-02-19T20:39:19.576Z,22.10
2023-02-19T20:42:48.850Z,20.00
2023-02-19T20:46:18.076Z,18.40
2023-02-19T20:49:47.133Z,18.80
2023-02-19T20:53:18.958Z,19.00
2023-02-19T20:56:47.806Z,12.90
2023-02-19T21:00:17.225Z,15.30
2023-02-19T21:03:46.430Z,13.60
2023-02-19T21:07:15.385Z,12.80
2023-02-19T21:10:43.801Z,19.30
2023-02-19T21:14:13.304Z,7.70
2023-02-19T21:18:12.467Z,15.90
2023-02-19T21:21:31.496Z,16.70
2023-02-19T21:25:00.683Z,7.20
2023-02-19T21:28:30.135Z,12.70
2023-02-19T21:31:59.411Z,11.40
2023-02-19T21:35:28.722Z,9.20
2023-02-19T21:38:55.836Z,14.20
2023-02-19T21:42:25.167Z,15.50
2023-02-19T21:45:54.588Z,16.30
2023-02-19T21:49:23.922Z,17.00
2023-02-19T21:52:53.440Z,6.70
2023-02-19T21:56:18.696Z,9.70
2023-02-19T21:59:48.667Z,5.10
2023-02-19T22:03:17.994Z,10.30
2023-02-19T22:06:47.573Z,5.10
2023-02-19T22:10:16.904Z,4.80
2023-02-19T22:13:46.344Z,11.30
2023-02-19T22:17:15.761Z,6.00
2023-02-19T22:20:45.146Z,11.50
2023-02-19T22:24:06.403Z,11.80
2023-02-19T22:27:26.737Z,6.00
2023-02-19T22:30:55.469Z,10.60
2023-02-19T22:34:24.896Z,10.10
2023-02-19T22:37:54.303Z,15.10
2023-02-19T22:41:23.155Z,13.20
2023-02-19T22:44:52.060Z,7.90
2023-02-19T22:48:19.278Z,10.10
2023-02-19T22:51:44.502Z,15.60
2023-02-19T22:55:14.177Z,8.10
2023-02-19T22:58:41.816Z,13.70
2023-02-19T23:02:49.939Z,9.90
2023-02-19T23:05:55.176Z,11.80
2023-02-19T23:09:27.116Z,8.20
2023-02-19T23:12:56.500Z,7.60
2023-02-19T23:16:25.744Z,6.30
2023-02-19T23:19:54.506Z,4.70
2023-02-19T23:23:23.693Z,7.60
2023-02-19T23:26:53.338Z,12.00
2023-02-19T23:30:22.173Z,4.80
2023-02-19T23:33:51.400Z,5.50
2023-02-19T23:37:26.206Z,7.10
2023-02-19T23:40:55.504Z,6.70
2023-02-19T23:44:24.655Z,3.30
2023-02-19T23:47:53.637Z,6.80
2023-02-19T23:51:22.889Z,5.00
2023-02-19T23:54:52.371Z,3.60
2023-02-19T23:58:21.693Z,4.20
